createdAt,value
2019-03-12T00:00:04.657Z,0.45
2019-03-12T00:15:03.435Z,0.42
2019-03-12T00:30:11.531Z,0.38
2019-03-12T00:45:09.105Z,0.38
2019-03-12T01:00:12.100Z,0.5
2019-03-12T01:15:07.996Z,0.51
2019-03-12T01:45:06.641Z,0.37
2019-03-12T02:00:09.427Z,0.45
2019-03-12T02:15:12.730Z,0.41
2019-03-12T02:45:08.682Z,0.46
2019-03-12T03:00:08.549Z,0.46
2019-03-12T03:30:11.247Z,0.46
2019-03-12T03:45:08.626Z,0.41
2019-03-12T04:00:08.247Z,0.49
2019-03-12T04:15:03.690Z,0.53
2019-03-12T04:45:05.136Z,0.54
2019-03-12T05:00:07.495Z,0.5
2019-03-12T05:30:05.735Z,0.42
2019-03-12T05:45:05.946Z,0.47
2019-03-12T06:30:11.063Z,1.06
2019-03-12T07:15:12.755Z,1.4
2019-03-12T07:30:07.839Z,1.46
2019-03-12T07:45:11.047Z,1.48
2019-03-12T08:45:11.030Z,1.51
2019-03-12T09:00:10.242Z,1.53
2019-03-12T09:15:09.066Z,1.52
2019-03-12T09:30:06.822Z,1.48
2019-03-12T09:45:06.219Z,1.62
2019-03-12T10:15:09.552Z,1.59
2019-03-12T10:30:09.461Z,1.53
2019-03-12T10:45:07.360Z,1.53
2019-03-12T11:00:04.311Z,1.58
2019-03-12T11:15:10.972Z,1.51
2019-03-12T11:30:10.033Z,1.52
2019-03-12T11:45:14.539Z,1.5
2019-03-12T12:15:08.298Z,1.47
2019-03-12T12:30:06.652Z,1.52
2019-03-12T12:45:07.496Z,1.49
2019-03-12T13:30:04.045Z,1.62
2019-03-12T13:45:05.321Z,1.51
2019-03-12T14:00:04.520Z,1.47
2019-03-12T14:15:04.883Z,1.42
2019-03-12T14:30:03.354Z,1.45
2019-03-12T15:00:07.980Z,1.54
2019-03-12T15:15:06.252Z,1.49
2019-03-12T15:30:03.418Z,1.43
2019-03-12T15:45:10.147Z,1.48
2019-03-12T16:00:09.163Z,1.63
2019-03-12T16:15:07.573Z,1.68
2019-03-12T16:45:11.645Z,1.65
2019-03-12T17:00:08.817Z,1.53
2019-03-12T17:45:05.258Z,1.46
2019-03-12T18:00:07.671Z,1.44
2019-03-12T18:15:08.037Z,1.5
2019-03-12T18:45:05.726Z,1.45
2019-03-12T19:00:06.341Z,1.42
2019-03-12T19:15:09.572Z,1.43
2019-03-12T19:30:04.149Z,1.45
2019-03-12T19:45:06.218Z,1.4
2019-03-12T20:00:02.987Z,1.52
2019-03-12T20:15:12.454Z,1.52
2019-03-12T20:30:06.676Z,1.47
2019-03-12T20:45:10.666Z,1.42
2019-03-12T21:00:10.839Z,1.45
2019-03-12T21:15:04.596Z,1.48
2019-03-12T21:45:10.122Z,1.5
2019-03-12T22:00:10.443Z,1.53
2019-03-12T22:30:10.193Z,1.46
2019-03-12T22:45:10.071Z,1.43
2019-03-12T23:00:09.766Z,1.45
